createdAt,value
2018-09-18T00:00:21.848Z,19.08
2018-09-18T00:02:51.062Z,19.07
2018-09-18T00:05:20.289Z,19.08
2018-09-18T00:07:49.469Z,19.09
2018-09-18T00:10:18.609Z,19.10
2018-09-18T00:12:47.837Z,19.05
2018-09-18T00:15:17.221Z,18.90
2018-09-18T00:17:46.410Z,18.89
2018-09-18T00:20:15.611Z,18.82
2018-09-18T00:22:44.817Z,18.83
2018-09-18T00:25:13.969Z,18.75
2018-09-18T00:27:43.125Z,18.81
2018-09-18T00:30:12.295Z,18.84
2018-09-18T00:32:41.649Z,18.83
2018-09-18T00:35:11.186Z,18.83
2018-09-18T00:37:40.365Z,18.68
2018-09-18T00:40:09.569Z,18.67
2018-09-18T00:42:38.760Z,18.71
2018-09-18T00:45:08.085Z,18.79
2018-09-18T00:47:37.264Z,18.75
2018-09-18T00:50:06.617Z,18.76
2018-09-18T00:52:35.794Z,18.69
2018-09-18T00:55:04.958Z,18.64
2018-09-18T00:57:34.507Z,18.60
2018-09-18T01:00:04.315Z,18.56
2018-09-18T01:02:33.941Z,18.57
2018-09-18T01:05:03.116Z,18.59
2018-09-18T01:07:32.301Z,18.57
2018-09-18T01:10:01.482Z,18.64
2018-09-18T01:12:30.645Z,18.58
2018-09-18T01:14:59.814Z,18.47
2018-09-18T01:17:29.167Z,18.39
2018-09-18T01:19:58.354Z,18.39
2018-09-18T01:22:28.114Z,18.33
2018-09-18T01:24:57.264Z,18.37
2018-09-18T01:27:26.421Z,18.41
2018-09-18T01:29:55.700Z,18.36
2018-09-18T01:32:24.896Z,18.35
2018-09-18T01:34:54.272Z,18.29
2018-09-18T01:37:23.437Z,18.29
2018-09-18T01:39:52.708Z,18.30
2018-09-18T01:42:21.882Z,18.35
2018-09-18T01:44:51.049Z,18.40
2018-09-18T01:47:20.230Z,18.38
2018-09-18T01:49:49.465Z,18.32
2018-09-18T01:52:18.618Z,18.32
2018-09-18T01:54:48.039Z,18.29
2018-09-18T01:57:17.237Z,18.20
2018-09-18T01:59:46.453Z,18.22
2018-09-18T02:02:15.658Z,18.24
2018-09-18T02:04:44.973Z,18.16
2018-09-18T02:07:14.139Z,18.15
2018-09-18T02:09:43.418Z,18.14
2018-09-18T02:12:12.689Z,18.09
2018-09-18T02:14:41.958Z,17.99
2018-09-18T02:17:11.073Z,18.03
2018-09-18T02:19:40.300Z,18.05
2018-09-18T02:22:09.589Z,18.02
2018-09-18T02:24:38.785Z,18.03
2018-09-18T02:27:08.018Z,18.01
2018-09-18T02:29:37.210Z,18.01
2018-09-18T02:32:06.517Z,17.94
2018-09-18T02:34:35.816Z,17.92
2018-09-18T02:37:04.977Z,17.94
2018-09-18T02:39:34.590Z,17.86
2018-09-18T02:42:03.816Z,17.88
2018-09-18T02:44:32.991Z,17.81
2018-09-18T02:47:02.170Z,17.84
2018-09-18T02:49:31.338Z,17.83
2018-09-18T02:52:00.530Z,17.80
2018-09-18T02:54:29.668Z,17.82
2018-09-18T02:56:59.276Z,17.82
2018-09-18T02:59:28.436Z,17.89
2018-09-18T03:01:57.585Z,17.83
2018-09-18T03:04:26.799Z,17.79
2018-09-18T03:06:56.025Z,17.78
2018-09-18T03:09:25.303Z,17.79
2018-09-18T03:11:54.500Z,17.79
2018-09-18T03:14:23.744Z,17.89
2018-09-18T03:16:52.909Z,17.86
2018-09-18T03:19:22.209Z,17.89
2018-09-18T03:21:51.369Z,17.88
2018-09-18T03:24:20.529Z,17.90
2018-09-18T03:26:49.777Z,17.79
2018-09-18T03:29:18.999Z,17.79
2018-09-18T03:31:48.158Z,17.83
2018-09-18T03:34:17.329Z,17.85
2018-09-18T03:36:46.608Z,17.80
2018-09-18T03:39:15.788Z,17.76
2018-09-18T03:41:44.963Z,17.75
2018-09-18T03:44:14.125Z,17.72
2018-09-18T03:46:43.305Z,17.68
2018-09-18T03:49:12.485Z,17.64
2018-09-18T03:51:41.708Z,17.63
2018-09-18T03:54:11.225Z,17.61
2018-09-18T03:56:40.417Z,17.58
2018-09-18T03:59:09.565Z,17.55
2018-09-18T04:01:38.762Z,17.51
2018-09-18T04:04:07.913Z,17.49
2018-09-18T04:06:37.079Z,17.44
2018-09-18T04:09:09.179Z,17.46
2018-09-18T04:11:38.393Z,17.45
2018-09-18T04:14:07.673Z,17.41
2018-09-18T04:16:36.890Z,17.44
2018-09-18T04:19:06.231Z,17.45
2018-09-18T04:21:40.401Z,17.48
2018-09-18T04:24:09.577Z,17.49
2018-09-18T04:26:40.094Z,17.49
2018-09-18T04:29:09.920Z,17.42
2018-09-18T04:31:40.584Z,17.48
2018-09-18T04:34:09.881Z,17.46
2018-09-18T04:36:39.036Z,17.52
2018-09-18T04:39:11.620Z,17.53
2018-09-18T04:41:41.040Z,17.49
2018-09-18T04:44:10.950Z,17.54
2018-09-18T04:46:40.154Z,17.48
2018-09-18T04:49:09.349Z,17.53
2018-09-18T04:51:38.532Z,17.54
2018-09-18T04:54:07.732Z,17.55
2018-09-18T04:56:36.938Z,17.57
2018-09-18T04:59:06.193Z,17.59
2018-09-18T05:01:35.717Z,17.62
2018-09-18T05:04:04.945Z,17.79
2018-09-18T05:06:34.149Z,17.76
2018-09-18T05:09:03.450Z,17.84
2018-09-18T05:11:32.693Z,17.87
2018-09-18T05:14:01.935Z,17.88
2018-09-18T05:16:31.071Z,17.79
2018-09-18T05:19:00.215Z,17.82
2018-09-18T05:21:29.360Z,17.79
2018-09-18T05:23:58.514Z,17.75
2018-09-18T05:26:27.669Z,17.77
2018-09-18T05:28:56.821Z,17.79
2018-09-18T05:31:25.984Z,17.80
2018-09-18T05:33:55.141Z,17.76
2018-09-18T05:36:24.285Z,17.75
2018-09-18T05:38:53.434Z,17.79
2018-09-18T05:41:22.568Z,17.80
2018-09-18T05:43:51.736Z,17.80
2018-09-18T05:46:20.888Z,17.81
2018-09-18T05:48:50.393Z,17.83
2018-09-18T05:51:19.668Z,17.82
2018-09-18T05:53:48.853Z,17.80
2018-09-18T05:56:17.994Z,17.80
2018-09-18T05:58:47.201Z,17.92
2018-09-18T06:01:16.369Z,17.92
2018-09-18T06:03:45.780Z,17.93
2018-09-18T06:06:14.956Z,17.95
2018-09-18T06:08:44.211Z,17.99
2018-09-18T06:11:13.461Z,17.97
2018-09-18T06:13:42.617Z,18.04
2018-09-18T06:16:11.805Z,17.95
2018-09-18T06:18:41.041Z,17.91
2018-09-18T06:21:10.286Z,17.95
2018-09-18T06:23:39.452Z,17.89
2018-09-18T06:26:08.763Z,17.89
2018-09-18T06:28:37.869Z,17.88
2018-09-18T06:31:07.042Z,17.93
2018-09-18T06:33:36.189Z,18.02
2018-09-18T06:36:05.325Z,18.05
2018-09-18T06:38:34.477Z,18.11
2018-09-18T06:41:03.641Z,18.19
2018-09-18T06:43:32.817Z,18.14
2018-09-18T06:46:02.018Z,18.23
2018-09-18T06:48:31.453Z,18.28
2018-09-18T06:51:00.601Z,18.30
2018-09-18T06:53:29.733Z,18.37
2018-09-18T06:55:58.888Z,18.45
2018-09-18T06:58:28.043Z,18.53
2018-09-18T07:00:57.221Z,18.58
2018-09-18T07:03:26.375Z,18.65
2018-09-18T07:05:55.531Z,18.73
2018-09-18T07:08:24.670Z,18.86
2018-09-18T07:10:53.817Z,18.99
2018-09-18T07:13:23.010Z,19.14
2018-09-18T07:15:52.160Z,19.31
2018-09-18T07:18:21.297Z,19.54
2018-09-18T07:20:50.793Z,19.79
2018-09-18T07:23:19.925Z,20.07
2018-09-18T07:25:49.097Z,20.35
2018-09-18T07:28:18.286Z,20.60
2018-09-18T07:30:47.501Z,21.01
2018-09-18T07:33:16.629Z,21.24
2018-09-18T07:35:45.776Z,21.59
2018-09-18T07:38:14.919Z,21.85
2018-09-18T07:40:44.069Z,22.19
2018-09-18T07:43:13.245Z,22.51
2018-09-18T07:45:42.393Z,22.68
2018-09-18T07:48:11.573Z,22.93
2018-09-18T07:50:40.753Z,23.19
2018-09-18T07:53:09.853Z,23.27
2018-09-18T07:55:39.000Z,23.48
2018-09-18T07:58:08.153Z,23.53
2018-09-18T08:00:37.320Z,23.75
2018-09-18T08:03:06.506Z,23.89
2018-09-18T08:05:35.821Z,24.07
2018-09-18T08:08:04.960Z,24.20
2018-09-18T08:10:34.149Z,24.34
2018-09-18T08:13:03.301Z,24.52
2018-09-18T08:15:32.440Z,24.53
2018-09-18T08:18:01.619Z,24.83
2018-09-18T08:20:30.778Z,25.10
2018-09-18T08:23:00.017Z,25.31
2018-09-18T08:25:29.394Z,25.54
2018-09-18T08:27:58.441Z,25.69
2018-09-18T08:30:27.582Z,25.83
2018-09-18T08:32:56.909Z,25.96
2018-09-18T08:35:25.907Z,25.91
2018-09-18T08:37:55.122Z,26.12
2018-09-18T08:40:24.245Z,26.16
2018-09-18T08:42:53.456Z,26.30
2018-09-18T08:45:22.613Z,26.52
2018-09-18T08:47:51.790Z,26.60
2018-09-18T08:50:20.937Z,26.61
2018-09-18T08:52:50.099Z,26.76
2018-09-18T08:55:19.239Z,26.99
2018-09-18T08:57:48.398Z,27.16
2018-09-18T09:00:17.526Z,27.00
2018-09-18T09:02:46.900Z,27.29
2018-09-18T09:05:16.130Z,27.34
2018-09-18T09:07:45.663Z,27.44
2018-09-18T09:10:14.726Z,27.62
2018-09-18T09:12:44.318Z,27.64
2018-09-18T09:15:13.442Z,27.91
2018-09-18T09:17:42.594Z,27.97
2018-09-18T09:20:11.779Z,28.16
2018-09-18T09:22:40.927Z,28.41
2018-09-18T09:25:10.073Z,28.68
2018-09-18T09:27:39.763Z,28.71
2018-09-18T09:30:08.938Z,28.63
2018-09-18T09:32:38.058Z,28.62
2018-09-18T09:35:07.275Z,28.82
2018-09-18T09:37:36.421Z,29.06
2018-09-18T09:40:06.707Z,29.01
2018-09-18T09:42:35.898Z,28.99
2018-09-18T09:45:05.083Z,28.78
2018-09-18T09:47:34.161Z,28.78
2018-09-18T09:50:03.289Z,28.85
2018-09-18T09:52:32.455Z,28.54
2018-09-18T09:55:01.597Z,28.59
2018-09-18T09:57:30.909Z,28.61
2018-09-18T10:00:00.037Z,28.62
2018-09-18T10:02:30.315Z,28.57
2018-09-18T10:04:59.792Z,28.84
2018-09-18T10:07:29.031Z,29.01
2018-09-18T10:09:58.171Z,29.07
2018-09-18T10:12:27.351Z,29.09
2018-09-18T10:14:56.490Z,28.94
2018-09-18T10:17:25.685Z,28.64
2018-09-18T10:19:54.834Z,28.76
2018-09-18T10:22:23.997Z,28.60
2018-09-18T10:24:53.210Z,28.69
2018-09-18T10:27:22.316Z,28.74
2018-09-18T10:29:51.475Z,28.41
2018-09-18T10:32:20.638Z,28.60
2018-09-18T10:34:49.818Z,28.48
2018-09-18T10:37:18.969Z,28.49
2018-09-18T10:39:48.222Z,28.47
2018-09-18T10:42:17.356Z,28.56
2018-09-18T10:44:46.503Z,28.49
2018-09-18T10:47:15.718Z,28.43
2018-09-18T10:49:44.851Z,28.54
2018-09-18T10:52:14.017Z,28.63
2018-09-18T10:54:43.153Z,28.75
2018-09-18T10:57:12.330Z,28.95
2018-09-18T10:59:41.617Z,29.02
2018-09-18T11:02:10.913Z,28.81
2018-09-18T11:04:39.999Z,28.96
2018-09-18T11:07:09.262Z,28.97
2018-09-18T11:09:38.320Z,29.03
2018-09-18T11:12:07.473Z,29.12
2018-09-18T11:14:36.672Z,29.13
2018-09-18T11:17:05.885Z,29.24
2018-09-18T11:19:35.118Z,29.29
2018-09-18T11:22:04.301Z,29.29
2018-09-18T11:24:33.444Z,29.05
2018-09-18T11:27:02.654Z,29.04
2018-09-18T11:29:31.953Z,29.20
2018-09-18T11:32:01.105Z,29.23
2018-09-18T11:34:30.333Z,29.10
2018-09-18T11:36:59.846Z,29.15
2018-09-18T11:39:30.929Z,29.10
2018-09-18T11:42:00.294Z,29.10
2018-09-18T11:44:29.562Z,29.20
2018-09-18T11:46:58.979Z,29.28
2018-09-18T11:49:28.215Z,29.24
2018-09-18T11:51:57.478Z,29.27
2018-09-18T11:54:27.292Z,29.39
2018-09-18T11:56:56.448Z,29.51
2018-09-18T11:59:25.731Z,29.61
2018-09-18T12:01:55.724Z,29.61
2018-09-18T12:04:24.991Z,29.61
2018-09-18T12:06:54.353Z,29.62
2018-09-18T12:09:23.524Z,29.61
2018-09-18T12:11:52.785Z,29.63
2018-09-18T12:14:22.050Z,29.58
2018-09-18T12:16:51.339Z,29.64
2018-09-18T12:19:20.445Z,29.61
2018-09-18T12:21:50.128Z,29.59
2018-09-18T12:24:19.267Z,29.47
2018-09-18T12:26:48.521Z,29.51
2018-09-18T12:29:17.913Z,29.42
2018-09-18T12:31:47.315Z,29.39
2018-09-18T12:34:16.556Z,29.39
2018-09-18T12:36:46.146Z,29.48
2018-09-18T12:39:15.437Z,29.50
2018-09-18T12:41:44.960Z,29.53
2018-09-18T12:44:14.149Z,29.54
2018-09-18T12:46:43.327Z,29.57
2018-09-18T12:49:12.591Z,29.67
2018-09-18T12:51:42.248Z,29.73
2018-09-18T12:54:12.081Z,29.79
2018-09-18T12:56:41.213Z,29.71
2018-09-18T12:59:10.371Z,29.68
2018-09-18T13:01:39.789Z,29.61
2018-09-18T13:04:09.268Z,29.65
2018-09-18T13:06:38.524Z,29.61
2018-09-18T13:09:10.541Z,29.52
2018-09-18T13:11:39.755Z,29.50
2018-09-18T13:14:09.245Z,29.50
2018-09-18T13:16:38.407Z,29.51
2018-09-18T13:19:07.724Z,29.49
2018-09-18T13:21:36.889Z,29.28
2018-09-18T13:24:06.182Z,29.42
2018-09-18T13:26:35.367Z,29.45
2018-09-18T13:29:04.553Z,29.57
2018-09-18T13:31:33.730Z,29.58
2018-09-18T13:34:02.892Z,29.57
2018-09-18T13:36:32.199Z,29.58
2018-09-18T13:39:01.362Z,29.63
2018-09-18T13:41:30.585Z,29.71
2018-09-18T13:43:59.729Z,29.71
2018-09-18T13:46:29.034Z,29.65
2018-09-18T13:48:58.132Z,29.61
2018-09-18T13:51:27.362Z,29.59
2018-09-18T13:53:56.513Z,29.48
2018-09-18T13:56:25.851Z,29.52
2018-09-18T13:58:54.951Z,29.28
2018-09-18T14:01:24.158Z,29.36
2018-09-18T14:03:53.279Z,29.33
2018-09-18T14:06:22.526Z,29.32
2018-09-18T14:08:51.699Z,29.28
2018-09-18T14:11:20.906Z,29.35
2018-09-18T14:13:50.171Z,29.45
2018-09-18T14:16:19.354Z,29.35
2018-09-18T14:18:48.639Z,29.35
2018-09-18T14:21:17.933Z,29.32
2018-09-18T14:23:47.116Z,29.37
2018-09-18T14:26:16.370Z,29.34
2018-09-18T14:28:45.493Z,29.20
2018-09-18T14:31:14.671Z,29.03
2018-09-18T14:33:43.860Z,28.86
2018-09-18T14:36:13.068Z,28.69
2018-09-18T14:38:42.234Z,28.56
2018-09-18T14:41:11.448Z,28.40
2018-09-18T14:43:40.660Z,28.26
2018-09-18T14:46:09.811Z,28.19
2018-09-18T14:48:39.019Z,28.16
2018-09-18T14:51:08.262Z,28.13
2018-09-18T14:53:37.399Z,28.05
2018-09-18T14:56:06.745Z,27.98
2018-09-18T14:58:35.967Z,27.94
2018-09-18T15:01:05.150Z,27.90
2018-09-18T15:03:34.357Z,27.74
2018-09-18T15:06:03.593Z,27.68
2018-09-18T15:08:32.990Z,27.59
2018-09-18T15:11:02.224Z,27.41
2018-09-18T15:13:31.466Z,27.29
2018-09-18T15:16:00.667Z,27.18
2018-09-18T15:18:29.938Z,27.13
2018-09-18T15:20:59.319Z,27.00
2018-09-18T15:23:28.521Z,26.94
2018-09-18T15:25:57.779Z,26.85
2018-09-18T15:28:26.990Z,26.79
2018-09-18T15:30:56.180Z,26.72
2018-09-18T15:33:25.485Z,26.69
2018-09-18T15:35:54.720Z,26.61
2018-09-18T15:38:23.976Z,26.61
2018-09-18T15:40:53.196Z,26.55
2018-09-18T15:43:22.693Z,26.51
2018-09-18T15:45:51.941Z,26.46
2018-09-18T15:48:21.102Z,26.43
2018-09-18T15:50:50.662Z,26.39
2018-09-18T15:53:19.865Z,26.36
2018-09-18T15:55:49.107Z,26.29
2018-09-18T15:58:18.288Z,26.20
2018-09-18T16:00:47.538Z,26.12
2018-09-18T16:03:16.753Z,26.04
2018-09-18T16:05:45.946Z,25.99
2018-09-18T16:08:15.129Z,25.90
2018-09-18T16:10:44.357Z,25.81
2018-09-18T16:13:13.546Z,25.79
2018-09-18T16:15:42.794Z,25.76
2018-09-18T16:18:11.979Z,25.70
2018-09-18T16:20:41.120Z,25.66
2018-09-18T16:23:10.296Z,25.61
2018-09-18T16:25:39.531Z,25.54
2018-09-18T16:28:08.825Z,25.48
2018-09-18T16:30:37.988Z,25.43
2018-09-18T16:33:07.173Z,25.33
2018-09-18T16:35:36.342Z,25.22
2018-09-18T16:38:05.534Z,25.16
2018-09-18T16:40:34.715Z,25.12
2018-09-18T16:43:03.891Z,25.00
2018-09-18T16:45:33.149Z,24.94
2018-09-18T16:48:02.427Z,24.89
2018-09-18T16:50:31.629Z,24.84
2018-09-18T16:53:00.813Z,24.73
2018-09-18T16:55:29.995Z,24.67
2018-09-18T16:58:05.910Z,24.59
2018-09-18T17:00:35.133Z,24.47
2018-09-18T17:03:04.455Z,24.35
2018-09-18T17:05:33.679Z,24.29
2018-09-18T17:08:02.888Z,24.11
2018-09-18T17:10:32.136Z,24.09
2018-09-18T17:13:01.272Z,23.88
2018-09-18T17:15:30.423Z,23.75
2018-09-18T17:17:59.567Z,23.65
2018-09-18T17:20:28.703Z,23.58
2018-09-18T17:22:57.886Z,23.45
2018-09-18T17:25:27.035Z,23.20
2018-09-18T17:27:56.184Z,23.17
2018-09-18T17:30:25.354Z,23.12
2018-09-18T17:32:54.520Z,23.04
2018-09-18T17:35:23.744Z,22.91
2018-09-18T17:37:52.929Z,22.87
2018-09-18T17:40:22.142Z,22.83
2018-09-18T17:42:51.343Z,22.66
2018-09-18T17:45:20.497Z,22.59
2018-09-18T17:47:49.672Z,22.50
2018-09-18T17:50:18.890Z,22.31
2018-09-18T17:52:47.982Z,22.33
2018-09-18T17:55:17.159Z,22.22
2018-09-18T17:57:46.304Z,22.00
2018-09-18T18:00:15.599Z,21.75
2018-09-18T18:02:44.774Z,21.72
2018-09-18T18:05:13.930Z,21.46
2018-09-18T18:07:43.298Z,21.55
2018-09-18T18:10:12.603Z,21.39
2018-09-18T18:12:41.813Z,21.36
2018-09-18T18:15:10.935Z,21.19
2018-09-18T18:17:40.111Z,21.20
2018-09-18T18:20:09.231Z,21.06
2018-09-18T18:22:38.408Z,21.14
2018-09-18T18:25:07.679Z,21.06
2018-09-18T18:27:36.892Z,20.82
2018-09-18T18:30:06.513Z,20.74
2018-09-18T18:32:35.812Z,20.82
2018-09-18T18:35:05.112Z,20.69
2018-09-18T18:37:34.261Z,20.65
2018-09-18T18:40:03.794Z,20.50
2018-09-18T18:42:33.003Z,20.50
2018-09-18T18:45:02.204Z,20.34
2018-09-18T18:47:31.569Z,20.43
2018-09-18T18:50:00.668Z,20.29
2018-09-18T18:52:29.833Z,20.24
2018-09-18T18:54:59.048Z,20.13
2018-09-18T18:57:28.230Z,20.16
2018-09-18T18:59:57.365Z,20.22
2018-09-18T19:02:26.623Z,20.25
2018-09-18T19:04:55.777Z,20.22
2018-09-18T19:07:24.931Z,20.06
2018-09-18T19:09:54.094Z,20.12
2018-09-18T19:12:23.287Z,20.16
2018-09-18T19:14:52.448Z,20.13
2018-09-18T19:17:21.588Z,19.95
2018-09-18T19:19:50.740Z,19.94
2018-09-18T19:22:19.949Z,19.71
2018-09-18T19:24:49.169Z,19.70
2018-09-18T19:27:18.346Z,19.78
2018-09-18T19:29:47.503Z,19.69
2018-09-18T19:32:16.706Z,19.78
2018-09-18T19:34:45.881Z,19.87
2018-09-18T19:37:15.077Z,19.77
2018-09-18T19:39:44.242Z,19.67
2018-09-18T19:42:13.563Z,19.65
2018-09-18T19:44:42.731Z,19.58
2018-09-18T19:47:11.898Z,19.52
2018-09-18T19:49:41.854Z,19.54
2018-09-18T19:52:11.859Z,19.53
2018-09-18T19:54:41.803Z,19.54
2018-09-18T19:57:10.974Z,19.59
2018-09-18T19:59:40.144Z,19.66
2018-09-18T20:02:09.329Z,19.60
2018-09-18T20:04:38.485Z,19.57
2018-09-18T20:07:07.669Z,19.68
2018-09-18T20:09:36.911Z,19.71
2018-09-18T20:12:06.281Z,19.70
2018-09-18T20:14:35.454Z,19.67
2018-09-18T20:17:04.625Z,19.52
2018-09-18T20:19:33.791Z,19.45
2018-09-18T20:22:02.961Z,19.38
2018-09-18T20:24:32.111Z,19.32
2018-09-18T20:27:01.281Z,19.30
2018-09-18T20:29:30.512Z,19.33
2018-09-18T20:31:59.629Z,19.26
2018-09-18T20:34:28.922Z,19.18
2018-09-18T20:36:58.068Z,19.07
2018-09-18T20:39:27.322Z,19.02
2018-09-18T20:41:57.392Z,19.00
2018-09-18T20:44:26.641Z,19.04
2018-09-18T20:46:56.328Z,18.95
2018-09-18T20:49:25.643Z,18.93
2018-09-18T20:51:54.813Z,19.04
2018-09-18T20:54:24.003Z,19.05
2018-09-18T20:56:53.212Z,19.07
2018-09-18T20:59:22.609Z,19.06
2018-09-18T21:01:51.811Z,19.03
2018-09-18T21:04:20.961Z,19.12
2018-09-18T21:06:50.136Z,19.01
2018-09-18T21:09:19.334Z,18.96
2018-09-18T21:11:48.533Z,19.11
2018-09-18T21:14:17.695Z,18.95
2018-09-18T21:16:46.957Z,18.94
2018-09-18T21:19:16.237Z,18.92
2018-09-18T21:21:45.554Z,18.90
2018-09-18T21:24:14.852Z,18.88
2018-09-18T21:26:44.047Z,18.93
2018-09-18T21:29:13.213Z,19.06
2018-09-18T21:31:42.470Z,19.04
2018-09-18T21:34:11.749Z,19.08
2018-09-18T21:36:40.925Z,19.05
2018-09-18T21:39:11.464Z,19.08
2018-09-18T21:41:40.788Z,19.11
2018-09-18T21:44:10.015Z,19.13
2018-09-18T21:46:39.323Z,19.14
2018-09-18T21:49:08.522Z,19.07
2018-09-18T21:51:39.000Z,19.06
2018-09-18T21:54:08.219Z,19.08
2018-09-18T21:56:37.442Z,19.06
2018-09-18T21:59:06.736Z,19.11
2018-09-18T22:01:35.901Z,19.15
2018-09-18T22:04:05.104Z,19.13
2018-09-18T22:06:34.288Z,19.13
2018-09-18T22:09:03.434Z,19.05
2018-09-18T22:11:32.630Z,19.04
2018-09-18T22:14:02.160Z,19.08
2018-09-18T22:16:31.361Z,19.07
2018-09-18T22:19:00.494Z,19.14
2018-09-18T22:21:29.654Z,19.20
2018-09-18T22:23:58.871Z,19.16
2018-09-18T22:26:28.029Z,19.20
2018-09-18T22:28:57.188Z,19.21
2018-09-18T22:31:26.680Z,19.25
2018-09-18T22:33:55.795Z,19.23
2018-09-18T22:36:24.938Z,19.26
2018-09-18T22:38:54.151Z,19.30
2018-09-18T22:41:23.286Z,19.33
2018-09-18T22:43:52.642Z,19.34
2018-09-18T22:46:21.793Z,19.42
2018-09-18T22:48:50.936Z,19.45
2018-09-18T22:51:20.088Z,19.50
2018-09-18T22:53:49.220Z,19.52
2018-09-18T22:56:18.374Z,19.59
2018-09-18T22:58:47.514Z,19.58
2018-09-18T23:01:16.736Z,19.61
2018-09-18T23:03:45.941Z,19.63
2018-09-18T23:06:15.400Z,19.70
2018-09-18T23:08:44.866Z,19.73
2018-09-18T23:11:14.080Z,19.73
2018-09-18T23:13:43.259Z,19.71
2018-09-18T23:16:12.407Z,19.66
2018-09-18T23:18:41.603Z,19.69
2018-09-18T23:21:10.747Z,19.72
2018-09-18T23:23:39.896Z,19.74
2018-09-18T23:26:09.045Z,19.70
2018-09-18T23:28:38.225Z,19.69
2018-09-18T23:31:07.366Z,19.69
2018-09-18T23:33:36.513Z,19.56
2018-09-18T23:36:05.692Z,19.53
2018-09-18T23:38:34.866Z,19.53
2018-09-18T23:41:04.023Z,19.51
2018-09-18T23:43:33.193Z,19.41
2018-09-18T23:46:02.355Z,19.31
2018-09-18T23:48:31.493Z,19.31
2018-09-18T23:51:00.637Z,19.33
2018-09-18T23:53:29.851Z,19.28
2018-09-18T23:55:59.024Z,19.31
2018-09-18T23:58:28.164Z,19.24
